createdAt,value
2016-04-15T00:00:10.973Z,21.9
2016-04-15T00:01:09.007Z,21.9
2016-04-15T00:02:06.946Z,21.9
2016-04-15T00:03:05.074Z,21.9
2016-04-15T00:04:03.109Z,21.9
2016-04-15T00:05:01.093Z,21.9
2016-04-15T00:07:00.145Z,21.8
2016-04-15T00:07:58.179Z,21.8
2016-04-15T00:08:56.212Z,21.9
2016-04-15T00:09:54.247Z,21.8
2016-04-15T00:10:52.656Z,21.8
2016-04-15T00:13:47.008Z,21.9
2016-04-15T00:15:46.122Z,21.8
2016-04-15T00:16:44.047Z,21.9
2016-04-15T00:18:40.239Z,21.8
2016-04-15T00:20:36.197Z,21.8
2016-04-15T00:21:34.341Z,21.8
2016-04-15T00:22:32.375Z,21.8
2016-04-15T00:23:30.409Z,21.8
2016-04-15T00:24:28.505Z,21.8
2016-04-15T00:25:29.540Z,21.8
2016-04-15T00:26:27.824Z,21.8
2016-04-15T00:27:26.092Z,21.8
2016-04-15T00:28:24.016Z,21.9
2016-04-15T00:29:22.051Z,21.8
2016-04-15T00:30:20.209Z,21.8
2016-04-15T00:31:18.118Z,21.9
2016-04-15T00:32:16.152Z,21.9
2016-04-15T00:33:14.297Z,21.9
2016-04-15T00:34:12.393Z,21.9
2016-04-15T00:35:13.419Z,21.9
2016-04-15T00:36:11.468Z,21.8
2016-04-15T00:37:09.487Z,21.8
2016-04-15T00:38:07.520Z,21.8
2016-04-15T00:39:05.554Z,21.9
2016-04-15T00:40:03.479Z,21.9
2016-04-15T00:41:01.622Z,21.9
2016-04-15T00:41:59.653Z,21.9
2016-04-15T00:42:57.687Z,21.8
2016-04-15T00:43:55.673Z,21.9
2016-04-15T00:44:56.817Z,21.9
2016-04-15T00:45:54.976Z,21.8
2016-04-15T00:46:53.011Z,21.9
2016-04-15T00:47:51.170Z,21.9
2016-04-15T00:48:49.204Z,21.9
2016-04-15T00:49:47.253Z,21.9
2016-04-15T00:50:45.272Z,21.9
2016-04-15T00:51:43.446Z,21.9
2016-04-15T00:52:41.730Z,21.9
2016-04-15T00:53:39.826Z,21.9
2016-04-15T00:54:40.844Z,21.9
2016-04-15T00:55:39.128Z,21.9
2016-04-15T00:56:37.537Z,21.9
2016-04-15T00:57:35.680Z,21.9
2016-04-15T00:58:33.855Z,21.9
2016-04-15T00:59:32.295Z,21.9
2016-04-15T01:00:30.313Z,21.9
2016-04-15T01:01:28.722Z,21.9
2016-04-15T01:02:27.007Z,21.9
2016-04-15T01:03:25.260Z,21.9
2016-04-15T01:04:26.371Z,21.9
2016-04-15T01:06:22.954Z,21.9
2016-04-15T01:07:21.348Z,21.9
2016-04-15T01:08:19.429Z,21.9
2016-04-15T01:09:17.557Z,21.9
2016-04-15T01:10:15.731Z,21.9
2016-04-15T01:11:13.765Z,21.9
2016-04-15T01:13:10.036Z,21.9
2016-04-15T01:14:10.914Z,21.9
2016-04-15T01:18:03.315Z,21.9
2016-04-15T01:19:01.456Z,21.9
2016-04-15T01:19:59.490Z,21.9
2016-04-15T01:20:57.555Z,21.9
2016-04-15T01:23:54.938Z,21.9
2016-04-15T01:24:53.081Z,21.9
2016-04-15T01:25:50.880Z,21.9
2016-04-15T01:26:48.915Z,21.9
2016-04-15T01:27:47.214Z,21.9
2016-04-15T01:28:45.499Z,21.9
2016-04-15T01:29:43.673Z,21.9
2016-04-15T01:30:41.941Z,21.9
2016-04-15T01:32:38.446Z,22
2016-04-15T01:33:39.465Z,21.9
2016-04-15T01:34:37.749Z,21.9
2016-04-15T01:36:34.332Z,21.9
2016-04-15T01:39:28.949Z,21.9
2016-04-15T01:40:27.093Z,21.9
2016-04-15T01:41:25.267Z,21.9
2016-04-15T01:42:23.615Z,21.9
2016-04-15T01:43:24.632Z,22
2016-04-15T01:45:21.216Z,21.9
2016-04-15T01:46:19.500Z,21.9
2016-04-15T01:47:17.784Z,21.9
2016-04-15T01:48:15.958Z,22
2016-04-15T01:49:14.226Z,21.9
2016-04-15T01:51:10.560Z,21.9
2016-04-15T01:52:08.781Z,21.9
2016-04-15T01:53:09.924Z,22
2016-04-15T01:54:08.099Z,22
2016-04-15T01:55:06.149Z,22
2016-04-15T01:56:04.416Z,21.9
2016-04-15T01:57:02.467Z,21.9
2016-04-15T01:58:00.748Z,22
2016-04-15T01:58:59.266Z,22
2016-04-15T01:59:57.519Z,21.9
2016-04-15T02:00:55.600Z,21.9
2016-04-15T02:01:53.931Z,21.9
2016-04-15T02:02:54.715Z,22
2016-04-15T02:03:53.014Z,22
2016-04-15T02:04:51.298Z,22
2016-04-15T02:05:49.582Z,22
2016-04-15T02:06:47.991Z,21.9
2016-04-15T02:07:46.291Z,22
2016-04-15T02:08:44.575Z,22
2016-04-15T02:09:42.859Z,22
2016-04-15T02:10:41.033Z,22
2016-04-15T02:11:39.505Z,22
2016-04-15T02:12:40.538Z,22
2016-04-15T02:13:38.698Z,22
2016-04-15T02:14:37.106Z,22
2016-04-15T02:15:35.390Z,22
2016-04-15T02:16:33.549Z,22
2016-04-15T02:17:31.958Z,22
2016-04-15T02:18:30.148Z,22
2016-04-15T02:19:28.416Z,22
2016-04-15T02:20:26.575Z,22
2016-04-15T02:21:24.937Z,22
2016-04-15T02:22:25.814Z,22
2016-04-15T02:23:23.850Z,22
2016-04-15T02:24:22.008Z,22
2016-04-15T02:25:20.214Z,22
2016-04-15T02:26:18.483Z,22
2016-04-15T02:27:16.610Z,22
2016-04-15T02:28:14.910Z,22
2016-04-15T02:29:13.069Z,22
2016-04-15T02:30:11.477Z,22
2016-04-15T02:31:09.714Z,22
2016-04-15T02:32:10.733Z,22
2016-04-15T02:33:09.126Z,22
2016-04-15T02:34:07.426Z,22
2016-04-15T02:35:05.584Z,22
2016-04-15T02:36:03.884Z,22
2016-04-15T02:37:02.165Z,22
2016-04-15T02:38:00.684Z,22
2016-04-15T02:38:58.749Z,22
2016-04-15T02:39:57.143Z,22
2016-04-15T02:40:55.395Z,22
2016-04-15T02:41:56.398Z,22
2016-04-15T02:42:54.541Z,22
2016-04-15T02:43:52.715Z,22
2016-04-15T02:44:51.124Z,22
2016-04-15T02:45:49.408Z,22
2016-04-15T02:46:47.348Z,22
2016-04-15T02:47:45.742Z,22
2016-04-15T02:48:43.901Z,22
2016-04-15T02:49:42.060Z,22
2016-04-15T02:50:40.298Z,22
2016-04-15T02:51:41.425Z,22
2016-04-15T02:52:39.725Z,22
2016-04-15T02:53:37.884Z,22
2016-04-15T02:54:36.183Z,22
2016-04-15T02:55:34.326Z,22
2016-04-15T02:56:32.625Z,22
2016-04-15T02:57:30.909Z,22
2016-04-15T02:58:29.069Z,22
2016-04-15T02:59:27.477Z,22
2016-04-15T03:00:25.730Z,22
2016-04-15T03:01:26.858Z,22
2016-04-15T03:02:25.142Z,22
2016-04-15T03:03:23.300Z,22.1
2016-04-15T03:04:21.616Z,22
2016-04-15T03:05:20.010Z,22
2016-04-15T03:06:18.183Z,22
2016-04-15T03:07:16.468Z,22
2016-04-15T03:08:14.752Z,22
2016-04-15T03:09:13.035Z,22
2016-04-15T03:10:11.382Z,22
2016-04-15T03:11:12.400Z,22
2016-04-15T03:13:08.984Z,22.1
2016-04-15T03:14:07.376Z,22.1
2016-04-15T03:15:05.567Z,22
2016-04-15T03:16:03.960Z,22
2016-04-15T03:17:02.117Z,22.1
2016-04-15T03:18:00.416Z,22
2016-04-15T03:18:58.715Z,22.1
2016-04-15T03:19:57.078Z,22.1
2016-04-15T03:20:58.065Z,22.1
2016-04-15T03:21:56.349Z,22.1
2016-04-15T03:22:54.758Z,22
2016-04-15T03:23:52.667Z,22.1
2016-04-15T03:24:50.951Z,22.1
2016-04-15T03:25:49.234Z,22.1
2016-04-15T03:26:47.534Z,22.1
2016-04-15T03:27:45.818Z,22.1
2016-04-15T03:28:44.227Z,22.1
2016-04-15T03:29:42.574Z,22.1
2016-04-15T03:30:43.483Z,22
2016-04-15T03:31:41.892Z,22.1
2016-04-15T03:32:40.050Z,22.1
2016-04-15T03:33:38.335Z,22.1
2016-04-15T03:34:36.619Z,22.1
2016-04-15T03:35:35.043Z,22
2016-04-15T03:36:33.218Z,22
2016-04-15T03:37:31.485Z,22
2016-04-15T03:38:29.801Z,22
2016-04-15T03:39:28.132Z,22
2016-04-15T03:40:29.260Z,22.1
2016-04-15T03:41:27.543Z,22
2016-04-15T03:42:25.718Z,22
2016-04-15T03:43:24.112Z,22.1
2016-04-15T03:44:22.426Z,22
2016-04-15T03:45:20.695Z,22
2016-04-15T03:46:18.979Z,22
2016-04-15T03:47:17.279Z,22.1
2016-04-15T03:48:15.437Z,22
2016-04-15T03:49:13.784Z,22.1
2016-04-15T03:50:14.801Z,22.1
2016-04-15T03:51:13.226Z,22.1
2016-04-15T03:52:11.479Z,22.1
2016-04-15T03:53:09.669Z,22.1
2016-04-15T03:54:08.062Z,22
2016-04-15T03:55:06.347Z,22.1
2016-04-15T03:56:04.521Z,22.1
2016-04-15T03:57:02.805Z,22.1
2016-04-15T03:58:01.086Z,22.1
2016-04-15T03:58:59.432Z,22.1
2016-04-15T04:00:00.575Z,22.1
2016-04-15T04:00:58.860Z,22.1
2016-04-15T04:01:57.144Z,22.1
2016-04-15T04:02:55.428Z,22.1
2016-04-15T04:03:53.727Z,22.1
2016-04-15T04:04:52.011Z,22.1
2016-04-15T04:05:50.202Z,22.1
2016-04-15T04:06:48.469Z,22.1
2016-04-15T04:07:46.754Z,22.1
2016-04-15T04:08:45.116Z,22.1
2016-04-15T04:09:46.243Z,22.1
2016-04-15T04:10:44.527Z,22.1
2016-04-15T04:11:42.702Z,22.1
2016-04-15T04:12:41.096Z,22.1
2016-04-15T04:13:39.270Z,22.1
2016-04-15T04:14:37.679Z,22.1
2016-04-15T04:15:36.041Z,22.1
2016-04-15T04:16:34.153Z,22
2016-04-15T04:17:32.546Z,22.1
2016-04-15T04:18:30.799Z,22.1
2016-04-15T04:19:31.786Z,22.1
2016-04-15T04:20:30.086Z,22.1
2016-04-15T04:21:28.479Z,22.1
2016-04-15T04:22:26.778Z,22.1
2016-04-15T04:23:25.062Z,22.1
2016-04-15T04:24:23.346Z,22.1
2016-04-15T04:25:21.520Z,22.1
2016-04-15T04:26:19.930Z,22
2016-04-15T04:27:18.214Z,22.1
2016-04-15T04:28:16.436Z,22.1
2016-04-15T04:29:17.579Z,22.1
2016-04-15T04:30:15.753Z,22
2016-04-15T04:31:14.162Z,22.1
2016-04-15T04:32:12.322Z,22.1
2016-04-15T04:33:10.714Z,22.1
2016-04-15T04:34:09.014Z,22.1
2016-04-15T04:36:05.504Z,22.1
2016-04-15T04:37:03.757Z,22.1
2016-04-15T04:38:02.100Z,22.1
2016-04-15T04:39:03.121Z,22
2016-04-15T04:40:01.527Z,22.1
2016-04-15T04:40:59.810Z,22
2016-04-15T04:41:58.095Z,22.1
2016-04-15T04:42:56.379Z,22.1
2016-04-15T04:43:54.554Z,22.1
2016-04-15T04:44:53.072Z,22.1
2016-04-15T04:45:51.153Z,22.1
2016-04-15T04:46:49.546Z,22.1
2016-04-15T04:47:47.877Z,22.1
2016-04-15T04:48:48.770Z,22.1
2016-04-15T04:49:47.195Z,22.1
2016-04-15T04:50:45.353Z,22.1
2016-04-15T04:51:43.795Z,22.1
2016-04-15T04:52:42.055Z,22.1
2016-04-15T04:53:40.329Z,22.1
2016-04-15T04:54:38.621Z,22.1
2016-04-15T04:55:36.901Z,22.1
2016-04-15T04:56:35.186Z,22.1
2016-04-15T04:57:33.422Z,22.1
2016-04-15T04:58:34.550Z,22.1
2016-04-15T04:59:32.725Z,22.1
2016-04-15T05:00:31.040Z,22.1
2016-04-15T05:01:29.292Z,22.1
2016-04-15T05:02:27.577Z,22.1
2016-04-15T05:03:25.986Z,22.1
2016-04-15T05:04:24.269Z,22.1
2016-04-15T05:05:22.460Z,22.1
2016-04-15T05:06:20.852Z,22.1
2016-04-15T05:07:19.074Z,22.1
2016-04-15T05:08:20.093Z,22.1
2016-04-15T05:09:18.376Z,22.1
2016-04-15T05:10:16.661Z,22.1
2016-04-15T05:11:14.991Z,22.1
2016-04-15T05:12:13.354Z,22.1
2016-04-15T05:14:09.937Z,22.1
2016-04-15T05:15:08.096Z,22.1
2016-04-15T05:16:06.396Z,22.1
2016-04-15T05:17:04.726Z,22.2
2016-04-15T05:18:05.776Z,22.2
2016-04-15T05:19:04.043Z,22.2
2016-04-15T05:20:02.450Z,22.2
2016-04-15T05:21:00.734Z,22.2
2016-04-15T05:21:59.018Z,22.2
2016-04-15T05:22:57.192Z,22.2
2016-04-15T05:23:55.476Z,22.2
2016-04-15T05:24:53.886Z,22.2
2016-04-15T05:25:52.059Z,22.2
2016-04-15T05:26:50.391Z,22.3
2016-04-15T05:27:51.409Z,22.2
2016-04-15T05:28:49.709Z,22.3
2016-04-15T05:29:48.118Z,22.3
2016-04-15T05:30:46.402Z,22.3
2016-04-15T05:31:44.701Z,22.3
2016-04-15T05:32:42.860Z,22.3
2016-04-15T05:33:41.160Z,22.3
2016-04-15T05:34:39.428Z,22.3
2016-04-15T05:35:37.727Z,22.3
2016-04-15T05:36:36.059Z,22.3
2016-04-15T05:37:37.202Z,22.3
2016-04-15T05:38:35.236Z,22.3
2016-04-15T05:39:33.161Z,22.4
2016-04-15T05:40:31.319Z,22.4
2016-04-15T05:41:29.353Z,22.5
2016-04-15T05:43:25.296Z,22.5
2016-04-15T05:44:23.455Z,22.5
2016-04-15T05:45:21.504Z,22.5
2016-04-15T05:46:19.460Z,22.5
2016-04-15T05:47:20.479Z,22.5
2016-04-15T05:48:18.621Z,22.5
2016-04-15T05:49:16.406Z,22.5
2016-04-15T05:50:14.081Z,22.6
2016-04-15T05:51:12.098Z,22.6
2016-04-15T05:52:10.008Z,22.6
2016-04-15T05:53:08.026Z,22.6
2016-04-15T05:54:05.701Z,22.7
2016-04-15T05:55:03.704Z,22.7
2016-04-15T05:56:01.313Z,22.6
2016-04-15T05:57:02.315Z,22.7
2016-04-15T05:58:00.100Z,22.7
2016-04-15T05:58:57.883Z,22.7
2016-04-15T05:59:55.667Z,22.7
2016-04-15T06:00:53.451Z,22.7
2016-04-15T06:01:51.453Z,22.7
2016-04-15T06:02:49.003Z,22.7
2016-04-15T06:04:44.571Z,22.8
2016-04-15T06:05:42.402Z,22.8
2016-04-15T06:06:43.529Z,22.8
2016-04-15T06:07:41.313Z,22.8
2016-04-15T06:08:39.019Z,22.9
2016-04-15T06:09:36.882Z,22.9
2016-04-15T06:10:34.556Z,22.9
2016-04-15T06:11:32.434Z,22.9
2016-04-15T06:12:34.015Z,22.9
2016-04-15T06:13:35.596Z,23
2016-04-15T06:14:37.051Z,23
2016-04-15T06:15:38.819Z,23
2016-04-15T06:16:39.729Z,23
2016-04-15T06:17:41.403Z,23
2016-04-15T06:18:42.890Z,23.1
2016-04-15T06:19:44.565Z,23.1
2016-04-15T06:20:46.037Z,23.1
2016-04-15T06:21:47.748Z,23.1
2016-04-15T06:22:49.330Z,23.1
2016-04-15T06:23:50.661Z,23.3
2016-04-15T06:24:51.992Z,23.3
2016-04-15T06:25:53.369Z,23.3
2016-04-15T06:26:54.247Z,23.3
2016-04-15T06:27:55.722Z,23.3
2016-04-15T06:28:57.038Z,23.4
2016-04-15T06:29:58.352Z,23.3
2016-04-15T06:30:59.684Z,23.4
2016-04-15T06:34:03.539Z,23.5
2016-04-15T06:36:06.138Z,23.5
2016-04-15T06:37:07.000Z,23.6
2016-04-15T06:38:08.081Z,23.6
2016-04-15T06:39:09.162Z,23.6
2016-04-15T06:40:10.351Z,23.7
2016-04-15T06:41:11.432Z,23.7
2016-04-15T06:42:12.498Z,23.7
2016-04-15T06:43:13.453Z,23.7
2016-04-15T06:44:14.518Z,23.7
2016-04-15T06:45:15.708Z,23.7
2016-04-15T06:46:16.727Z,23.8
2016-04-15T06:47:17.870Z,23.8
2016-04-15T06:48:18.935Z,23.9
2016-04-15T06:49:19.751Z,23.9
2016-04-15T06:50:20.597Z,24
2016-04-15T06:51:21.319Z,24
2016-04-15T06:52:22.212Z,24.1
2016-04-15T06:53:23.042Z,24.2
2016-04-15T06:54:23.858Z,24.2
2016-04-15T06:55:24.704Z,24.3
2016-04-15T06:56:25.550Z,24.3
2016-04-15T06:57:26.444Z,24.4
2016-04-15T06:58:27.260Z,24.4
2016-04-15T07:00:28.406Z,24.5
2016-04-15T07:01:29.096Z,24.5
2016-04-15T07:02:29.536Z,24.5
2016-04-15T07:03:29.976Z,24.6
2016-04-15T07:04:30.276Z,24.6
2016-04-15T07:05:30.529Z,24.7
2016-04-15T07:06:30.859Z,24.7
2016-04-15T07:08:32.287Z,24.8
2016-04-15T07:09:32.492Z,24.8
2016-04-15T07:10:32.807Z,24.8
2016-04-15T07:11:33.231Z,24.8
2016-04-15T07:12:33.547Z,24.9
2016-04-15T07:13:33.768Z,24.9
2016-04-15T07:14:34.037Z,24.9
2016-04-15T07:15:33.977Z,24.9
2016-04-15T07:16:33.964Z,24.9
2016-04-15T07:17:35.092Z,24.9
2016-04-15T07:18:35.157Z,24.9
2016-04-15T07:19:35.207Z,25
2016-04-15T07:20:35.272Z,25
2016-04-15T07:21:35.341Z,25
2016-04-15T07:22:35.375Z,25
2016-04-15T07:23:35.441Z,25
2016-04-15T07:24:35.490Z,25
2016-04-15T07:25:35.180Z,25.1
2016-04-15T07:26:35.042Z,25.1
2016-04-15T07:27:36.065Z,25.1
2016-04-15T07:29:35.790Z,25.3
2016-04-15T07:30:35.730Z,25.2
2016-04-15T07:31:35.280Z,25.3
2016-04-15T07:32:35.079Z,25.3
2016-04-15T07:33:34.895Z,25.4
2016-04-15T07:34:34.803Z,25.4
2016-04-15T07:35:34.634Z,25.4
2016-04-15T07:36:34.356Z,25.5
2016-04-15T07:37:35.483Z,25.5
2016-04-15T07:38:35.173Z,25.5
2016-04-15T07:39:35.083Z,25.6
2016-04-15T07:40:34.772Z,25.6
2016-04-15T07:41:34.432Z,25.7
2016-04-15T07:42:33.981Z,25.7
2016-04-15T07:43:33.531Z,25.7
2016-04-15T07:44:33.081Z,25.7
2016-04-15T07:45:32.661Z,25.8
2016-04-15T07:46:31.867Z,25.9
2016-04-15T07:47:32.994Z,25.9
2016-04-15T07:48:32.294Z,26
2016-04-15T07:49:31.469Z,26
2016-04-15T07:50:30.893Z,26
2016-04-15T07:51:30.193Z,26.1
2016-04-15T07:52:29.476Z,26.1
2016-04-15T07:53:28.776Z,26.1
2016-04-15T07:54:27.951Z,26.2
2016-04-15T07:55:27.109Z,26.3
2016-04-15T07:56:26.082Z,26.3
2016-04-15T07:57:27.209Z,26.3
2016-04-15T07:58:26.259Z,26.4
2016-04-15T07:59:25.307Z,26.4
2016-04-15T08:00:24.092Z,26.4
2016-04-15T08:01:22.767Z,26.4
2016-04-15T08:02:21.659Z,26.4
2016-04-15T08:04:19.243Z,26.4
2016-04-15T08:05:18.028Z,26.4
2016-04-15T08:06:16.749Z,26.5
2016-04-15T08:07:17.893Z,26.5
2016-04-15T08:08:16.676Z,26.5
2016-04-15T08:09:15.460Z,26.5
2016-04-15T08:10:14.119Z,26.5
2016-04-15T08:11:13.028Z,26.5
2016-04-15T08:12:11.703Z,26.5
2016-04-15T08:13:10.595Z,26.6
2016-04-15T08:14:09.395Z,26.6
2016-04-15T08:15:08.179Z,26.6
2016-04-15T08:16:06.948Z,26.6
2016-04-15T08:17:07.919Z,26.6
2016-04-15T08:18:06.453Z,26.6
2016-04-15T08:19:05.112Z,26.6
2016-04-15T08:20:03.644Z,26.6
2016-04-15T08:21:02.292Z,26.6
2016-04-15T08:22:00.592Z,26.5
2016-04-15T08:22:58.876Z,26.5
2016-04-15T08:23:57.519Z,26.5
2016-04-15T08:24:55.928Z,26.5
2016-04-15T08:25:54.649Z,26.5
2016-04-15T08:26:55.667Z,26.4
2016-04-15T08:27:54.186Z,26.5
2016-04-15T08:28:52.610Z,26.3
2016-04-15T08:29:51.255Z,26.3
2016-04-15T08:30:49.803Z,26.3
2016-04-15T08:31:48.343Z,26.3
2016-04-15T08:32:46.794Z,26.3
2016-04-15T08:34:44.337Z,26.3
2016-04-15T08:35:43.196Z,26.2
2016-04-15T08:36:44.128Z,26.2
2016-04-15T08:37:43.162Z,26.2
2016-04-15T08:38:41.852Z,26.2
2016-04-15T08:39:40.667Z,26.2
2016-04-15T08:40:39.466Z,26.2
2016-04-15T08:41:38.155Z,26.2
2016-04-15T08:42:36.944Z,26.1
2016-04-15T08:43:35.858Z,26.2
2016-04-15T08:44:34.648Z,26.2
2016-04-15T08:45:33.391Z,26.2
2016-04-15T08:46:34.507Z,26.1
2016-04-15T08:47:33.184Z,26.2
2016-04-15T08:48:32.110Z,26.2
2016-04-15T08:49:30.959Z,26.1
2016-04-15T08:50:29.681Z,26.2
2016-04-15T08:51:28.468Z,26.2
2016-04-15T08:52:27.237Z,26.2
2016-04-15T08:53:25.928Z,26.2
2016-04-15T08:54:24.822Z,26.2
2016-04-15T08:55:23.560Z,26.2
2016-04-15T08:56:24.688Z,26.2
2016-04-15T08:57:23.972Z,26.2
2016-04-15T08:58:23.147Z,26.2
2016-04-15T08:59:22.198Z,26.2
2016-04-15T09:00:21.512Z,26.2
2016-04-15T09:01:20.828Z,26.2
2016-04-15T09:02:20.081Z,26.2
2016-04-15T09:03:19.506Z,26.2
2016-04-15T09:04:18.681Z,26.2
2016-04-15T09:05:18.152Z,26.2
2016-04-15T09:06:19.029Z,26.1
2016-04-15T09:07:18.329Z,26.1
2016-04-15T09:08:17.628Z,26.1
2016-04-15T09:09:17.037Z,26.1
2016-04-15T09:10:16.212Z,26.1
2016-04-15T09:11:15.620Z,26
2016-04-15T09:12:14.842Z,26
2016-04-15T09:13:14.219Z,26
2016-04-15T09:14:13.394Z,26
2016-04-15T09:15:12.741Z,26
2016-04-15T09:16:13.884Z,26
2016-04-15T09:17:13.059Z,26
2016-04-15T09:18:12.624Z,25.9
2016-04-15T09:19:11.908Z,26
2016-04-15T09:20:11.316Z,25.9
2016-04-15T09:21:10.851Z,25.9
2016-04-15T09:22:10.291Z,25.9
2016-04-15T09:23:09.841Z,25.9
2016-04-15T09:24:09.499Z,25.9
2016-04-15T09:25:09.003Z,25.8
2016-04-15T09:26:10.021Z,25.8
2016-04-15T09:27:09.571Z,25.8
2016-04-15T09:28:09.370Z,25.8
2016-04-15T09:29:09.169Z,25.8
2016-04-15T09:30:08.969Z,25.7
2016-04-15T09:31:08.768Z,25.7
2016-04-15T09:32:08.584Z,25.7
2016-04-15T09:33:08.367Z,25.7
2016-04-15T09:34:07.667Z,25.7
2016-04-15T09:35:06.764Z,25.7
2016-04-15T09:36:07.782Z,25.7
2016-04-15T09:37:06.316Z,25.6
2016-04-15T09:38:04.598Z,25.6
2016-04-15T09:39:02.990Z,25.5
2016-04-15T09:40:00.900Z,25.5
2016-04-15T09:40:58.933Z,25.5
2016-04-15T09:41:56.826Z,25.5
2016-04-15T09:42:54.501Z,25.5
2016-04-15T09:43:52.253Z,25.4
2016-04-15T09:44:50.084Z,25.4
2016-04-15T09:45:51.118Z,25.3
2016-04-15T09:46:49.011Z,25.3
2016-04-15T09:47:50.467Z,25.3
2016-04-15T09:48:52.049Z,25.3
2016-04-15T09:49:53.614Z,25.3
2016-04-15T09:50:54.960Z,25.2
2016-04-15T09:51:56.260Z,25.2
2016-04-15T09:52:57.715Z,25.2
2016-04-15T09:53:58.655Z,25.1
2016-04-15T09:54:59.643Z,25.1
2016-04-15T09:56:00.536Z,25.1
2016-04-15T09:57:01.227Z,25
2016-04-15T09:58:01.667Z,25
2016-04-15T09:59:01.966Z,25
2016-04-15T10:00:02.407Z,24.9
2016-04-15T10:01:02.596Z,24.9
2016-04-15T10:02:03.162Z,24.9
2016-04-15T10:03:03.461Z,24.9
2016-04-15T10:04:04.042Z,24.8
2016-04-15T10:05:04.654Z,24.8
2016-04-15T10:06:05.659Z,24.8
2016-04-15T10:07:05.975Z,24.8
2016-04-15T10:08:06.290Z,24.7
2016-04-15T10:09:06.840Z,24.7
2016-04-15T10:10:07.795Z,24.7
2016-04-15T10:11:08.595Z,24.7
2016-04-15T10:12:09.597Z,24.7
2016-04-15T10:13:11.006Z,24.7
2016-04-15T10:14:12.197Z,24.6
2016-04-15T10:15:13.824Z,24.6
2016-04-15T10:16:14.827Z,24.6
2016-04-15T10:17:12.626Z,24.6
2016-04-15T10:18:10.644Z,24.6
2016-04-15T10:19:08.928Z,24.7
2016-04-15T10:20:07.213Z,24.7
2016-04-15T10:21:05.497Z,24.7
2016-04-15T10:22:03.778Z,24.7
2016-04-15T10:23:02.311Z,24.7
2016-04-15T10:24:00.861Z,24.7
2016-04-15T10:24:59.566Z,24.8
2016-04-15T10:26:00.460Z,24.7
2016-04-15T10:26:58.994Z,24.7
2016-04-15T10:27:57.529Z,24.8
2016-04-15T10:28:56.063Z,24.8
2016-04-15T10:29:54.863Z,24.8
2016-04-15T10:30:53.646Z,24.8
2016-04-15T10:31:52.461Z,24.8
2016-04-15T10:32:51.338Z,24.8
2016-04-15T10:33:50.123Z,24.7
2016-04-15T10:34:48.968Z,24.8
2016-04-15T10:35:49.878Z,24.8
2016-04-15T10:36:48.912Z,24.7
2016-04-15T10:37:47.961Z,24.7
2016-04-15T10:38:46.996Z,24.7
2016-04-15T10:39:46.170Z,24.7
2016-04-15T10:40:45.470Z,24.7
2016-04-15T10:41:44.753Z,24.7
2016-04-15T10:42:43.944Z,24.6
2016-04-15T10:43:43.243Z,24.6
2016-04-15T10:44:42.824Z,24.6
2016-04-15T10:45:43.717Z,24.6
2016-04-15T10:46:42.907Z,24.6
2016-04-15T10:47:42.316Z,24.5
2016-04-15T10:48:41.491Z,24.5
2016-04-15T10:49:40.790Z,24.5
2016-04-15T10:50:40.091Z,24.5
2016-04-15T10:51:39.749Z,24.5
2016-04-15T10:52:39.299Z,24.5
2016-04-15T10:53:38.738Z,24.5
2016-04-15T10:54:38.351Z,24.5
2016-04-15T10:55:39.354Z,24.5
2016-04-15T10:57:39.078Z,24.5
2016-04-15T10:58:38.769Z,24.5
2016-04-15T10:59:38.818Z,24.5
2016-04-15T11:00:38.399Z,24.5
2016-04-15T11:01:38.183Z,24.5
2016-04-15T11:02:37.982Z,24.5
2016-04-15T11:03:38.032Z,24.5
2016-04-15T11:04:37.659Z,24.5
2016-04-15T11:05:38.677Z,24.5
2016-04-15T11:06:38.476Z,24.5
2016-04-15T11:07:38.276Z,24.4
2016-04-15T11:08:38.076Z,24.5
2016-04-15T11:09:38.001Z,24.5
2016-04-15T11:10:37.926Z,24.4
2016-04-15T11:11:37.490Z,24.4
2016-04-15T11:12:37.415Z,24.5
2016-04-15T11:13:37.106Z,24.4
2016-04-15T11:14:36.967Z,24.4
2016-04-15T11:15:38.095Z,24.4
2016-04-15T11:16:37.785Z,24.4
2016-04-15T11:17:37.600Z,24.3
2016-04-15T11:18:37.415Z,24.3
2016-04-15T11:19:37.199Z,24.3
2016-04-15T11:20:37.014Z,24.3
2016-04-15T11:21:36.924Z,24.3
2016-04-15T11:22:36.864Z,24.3
2016-04-15T11:23:36.929Z,24.3
2016-04-15T11:24:37.041Z,24.3
2016-04-15T11:25:38.059Z,24.3
2016-04-15T11:26:38.343Z,24.3
2016-04-15T11:27:38.174Z,24.3
2016-04-15T11:28:38.489Z,24.3
2016-04-15T11:29:38.289Z,24.3
2016-04-15T11:30:38.355Z,24.2
2016-04-15T11:31:38.404Z,24.3
2016-04-15T11:33:39.002Z,24.2
2016-04-15T11:34:39.427Z,24.2
2016-04-15T11:35:40.149Z,24.2
2016-04-15T11:36:40.464Z,24.2
2016-04-15T11:37:40.779Z,24.2
2016-04-15T11:38:41.078Z,24.2
2016-04-15T11:39:41.519Z,24.2
2016-04-15T11:40:41.709Z,24.2
2016-04-15T11:41:42.009Z,24.2
2016-04-15T11:42:42.323Z,24.1
2016-04-15T11:43:42.639Z,24.1
2016-04-15T11:44:43.001Z,24.1
2016-04-15T11:45:44.019Z,24.1
2016-04-15T11:46:44.334Z,24.1
2016-04-15T11:47:44.650Z,24.1
2016-04-15T11:48:45.199Z,24.1
2016-04-15T11:49:45.264Z,24.1
2016-04-15T11:50:45.580Z,24.1
2016-04-15T11:51:46.019Z,24.1
2016-04-15T11:52:46.210Z,24.1
2016-04-15T11:53:46.525Z,24.1
2016-04-15T11:54:46.887Z,24.1
2016-04-15T11:55:47.905Z,24.1
2016-04-15T11:56:48.205Z,24.1
2016-04-15T11:58:48.961Z,24.1
2016-04-15T11:59:49.151Z,24.1
2016-04-15T12:00:49.450Z,24.1
2016-04-15T12:01:49.781Z,24
2016-04-15T12:02:50.455Z,24.1
2016-04-15T12:03:50.895Z,24.1
2016-04-15T12:04:51.398Z,24
2016-04-15T12:05:52.292Z,24.1
2016-04-15T12:06:52.873Z,24
2016-04-15T12:07:53.422Z,24
2016-04-15T12:08:53.988Z,24
2016-04-15T12:09:54.555Z,24
2016-04-15T12:10:55.104Z,24.1
2016-04-15T12:11:55.795Z,24
2016-04-15T12:12:56.250Z,24
2016-04-15T12:13:56.816Z,24
2016-04-15T12:14:57.552Z,24
2016-04-15T12:15:58.446Z,24
2016-04-15T12:17:59.577Z,24
2016-04-15T12:19:00.141Z,24
2016-04-15T12:20:00.832Z,24
2016-04-15T12:21:01.413Z,24
2016-04-15T12:22:01.837Z,24
2016-04-15T12:23:02.402Z,24
2016-04-15T12:24:02.967Z,24
2016-04-15T12:25:03.970Z,24
2016-04-15T12:26:05.092Z,24
2016-04-15T12:27:05.531Z,24
2016-04-15T12:28:06.240Z,24
2016-04-15T12:29:06.931Z,24
2016-04-15T12:30:07.371Z,24
2016-04-15T12:31:07.936Z,24
2016-04-15T12:33:09.191Z,24
2016-04-15T12:34:09.897Z,24
2016-04-15T12:35:10.634Z,24
2016-04-15T12:36:11.528Z,24
2016-04-15T12:38:12.908Z,24
2016-04-15T12:39:13.848Z,24
2016-04-15T12:40:14.554Z,24
2016-04-15T12:41:15.119Z,24
2016-04-15T12:42:15.669Z,23.9
2016-04-15T12:43:16.593Z,23.9
2016-04-15T12:44:17.315Z,24
2016-04-15T12:45:17.926Z,23.9
2016-04-15T12:46:18.946Z,23.9
2016-04-15T12:47:19.979Z,23.9
2016-04-15T12:48:20.576Z,23.9
2016-04-15T12:49:21.625Z,23.9
2016-04-15T12:50:22.331Z,23.9
2016-04-15T12:51:23.146Z,23.9
2016-04-15T12:52:23.961Z,23.9
2016-04-15T12:53:24.667Z,23.9
2016-04-15T12:54:25.512Z,23.9
2016-04-15T12:56:27.487Z,23.9
2016-04-15T12:57:28.193Z,23.9
2016-04-15T12:58:29.243Z,23.9
2016-04-15T12:59:29.839Z,23.8
2016-04-15T13:00:30.639Z,23.9
2016-04-15T13:01:31.469Z,23.8
2016-04-15T13:02:32.394Z,23.8
2016-04-15T13:03:33.100Z,23.9
2016-04-15T13:04:33.915Z,23.9
2016-04-15T13:05:34.793Z,23.9
2016-04-15T13:06:35.812Z,23.8
2016-04-15T13:07:36.752Z,23.8
2016-04-15T13:08:37.442Z,23.8
2016-04-15T13:09:38.272Z,23.8
2016-04-15T13:10:39.088Z,23.8
2016-04-15T13:11:39.902Z,23.8
2016-04-15T13:12:40.843Z,23.8
2016-04-15T13:13:41.768Z,23.8
2016-04-15T13:14:42.349Z,23.8
2016-04-15T13:15:43.336Z,23.8
2016-04-15T13:16:44.244Z,23.7
2016-04-15T13:17:45.060Z,23.7
2016-04-15T13:18:45.990Z,23.7
2016-04-15T13:19:46.820Z,23.7
2016-04-15T13:20:47.510Z,23.7
2016-04-15T13:21:48.325Z,23.7
2016-04-15T13:22:49.156Z,23.7
2016-04-15T13:23:50.206Z,23.7
2016-04-15T13:24:50.787Z,23.7
2016-04-15T13:25:51.914Z,23.7
2016-04-15T13:26:52.932Z,23.7
2016-04-15T13:30:57.224Z,23.7
2016-04-15T13:32:59.370Z,23.7
2016-04-15T13:34:00.561Z,23.7
2016-04-15T13:35:01.626Z,23.7
2016-04-15T13:36:02.753Z,23.7
2016-04-15T13:37:03.881Z,23.7
2016-04-15T13:38:04.962Z,23.7
2016-04-15T13:39:05.808Z,23.7
2016-04-15T13:40:06.876Z,23.7
2016-04-15T13:41:08.051Z,23.7
2016-04-15T13:42:09.146Z,23.7
2016-04-15T13:43:10.087Z,23.6
2016-04-15T13:44:11.152Z,23.7
2016-04-15T13:45:12.343Z,23.6
2016-04-15T13:46:13.471Z,23.6
2016-04-15T13:48:15.679Z,23.6
2016-04-15T13:49:16.510Z,23.6
2016-04-15T13:50:17.590Z,23.6
2016-04-15T13:51:18.657Z,23.6
2016-04-15T13:52:19.846Z,23.6
2016-04-15T13:53:20.927Z,23.6
2016-04-15T13:55:22.948Z,23.6
2016-04-15T13:56:24.201Z,23.7
2016-04-15T13:57:25.109Z,23.6
2016-04-15T13:58:26.300Z,23.6
2016-04-15T13:59:27.614Z,23.6
2016-04-15T14:00:28.820Z,23.6
2016-04-15T14:01:29.901Z,23.6
2016-04-15T14:03:32.298Z,23.6
2016-04-15T14:04:33.488Z,23.6
2016-04-15T14:05:34.459Z,23.5
2016-04-15T14:07:36.855Z,23.5